<?xml version="1.0" encoding="UTF-8" standalone="no" ?><gpx xmlns="http://www.topografix.com/GPX/1/1" xmlns:gpxx="http://www.garmin.com/xmlschemas/GpxExtensions/v3" xmlns:wptx1="http://www.garmin.com/xmlschemas/WaypointExtension/v1" xmlns:gpxtpx="http://www.garmin.com/xmlschemas/TrackPointExtension/v1" creator="GuideVTT.com" version="1.1" xmlns:xsi="http://www.w3.org/2001/XMLSchema-instance" xsi:schemaLocation="http://www.topografix.com/GPX/1/1 http://www.topografix.com/GPX/1/1/gpx.xsd http://www.garmin.com/xmlschemas/GpxExtensions/v3 http://www8.garmin.com/xmlschemas/GpxExtensionsv3.xsd http://www.garmin.com/xmlschemas/WaypointExtension/v1 http://www8.garmin.com/xmlschemas/WaypointExtensionv1.xsd http://www.garmin.com/xmlschemas/TrackPointExtension/v1 http://www.garmin.com/xmlschemas/TrackPointExtensionv1.xsd">
<metadata><link href="http://www.garmin.com"><text>Garmin International</text></link><time>2013-06-22T15:13:50Z</time></metadata>
<trk><name>azaa.gpx</name><extensions><gpxx:TrackExtension><gpxx:DisplayColor>Cyan</gpxx:DisplayColor></gpxx:TrackExtension></extensions><trkseg>
<trkpt lat="-0.006064" lon="318.7"><ele></ele><time>2014-5-1T18:11:49Z</time></trkpt>
<trkpt lat="-0.006236" lon="319.5"><ele></ele><time>2014-5-1T18:11:52Z</time></trkpt>
<trkpt lat="-0.006508" lon="319.1"><ele></ele><time>2014-5-1T18:11:55Z</time></trkpt>
<trkpt lat="-0.006781" lon="319.5"><ele></ele><time>2014-5-1T18:11:58Z</time></trkpt>
<trkpt lat="-0.006955" lon="319.4"><ele></ele><time>2014-5-1T18:12:1Z</time></trkpt>
<trkpt lat="-0.007163" lon="320.0"><ele></ele><time>2014-5-1T18:12:4Z</time></trkpt>
<trkpt lat="-0.007339" lon="321.2"><ele></ele><time>2014-5-1T18:12:7Z</time></trkpt>
<trkpt lat="-0.007499" lon="322.5"><ele></ele><time>2014-5-1T18:12:10Z</time></trkpt>
<trkpt lat="-0.007710" lon="323.6"><ele></ele><time>2014-5-1T18:12:13Z</time></trkpt>
<trkpt lat="-0.007989" lon="323.9"><ele></ele><time>2014-5-1T18:12:16Z</time></trkpt>
<trkpt lat="-0.008401" lon="326.2"><ele></ele><time>2014-5-1T18:12:19Z</time></trkpt>
<trkpt lat="-0.008648" lon="325.8"><ele></ele><time>2014-5-1T18:12:22Z</time></trkpt>
<trkpt lat="-0.008825" lon="324.1"><ele></ele><time>2014-5-1T18:12:25Z</time></trkpt>
<trkpt lat="-0.008981" lon="329.8"><ele></ele><time>2014-5-1T18:12:28Z</time></trkpt>
<trkpt lat="-0.009536" lon="328.4"><ele></ele><time>2014-5-1T18:12:31Z</time></trkpt>
<trkpt lat="-0.010216" lon="328.9"><ele></ele><time>2014-5-1T18:12:34Z</time></trkpt>
<trkpt lat="-0.010928" lon="327.9"><ele></ele><time>2014-5-1T18:12:37Z</time></trkpt>
<trkpt lat="-0.011546" lon="327.0"><ele></ele><time>2014-5-1T18:12:40Z</time></trkpt>
<trkpt lat="-0.012123" lon="327.8"><ele></ele><time>2014-5-1T18:12:43Z</time></trkpt>
<trkpt lat="-0.012673" lon="328.2"><ele></ele><time>2014-5-1T18:12:46Z</time></trkpt>
<trkpt lat="-0.013111" lon="328.6"><ele></ele><time>2014-5-1T18:12:49Z</time></trkpt>
<trkpt lat="-0.013339" lon="327.4"><ele></ele><time>2014-5-1T18:12:52Z</time></trkpt>
<trkpt lat="-0.013611" lon="328.6"><ele></ele><time>2014-5-1T18:12:55Z</time></trkpt>
<trkpt lat="-0.013763" lon="329.4"><ele></ele><time>2014-5-1T18:12:58Z</time></trkpt>
<trkpt lat="-0.013852" lon="329.6"><ele></ele><time>2014-5-1T18:13:1Z</time></trkpt>
<trkpt lat="-0.013929" lon="331.2"><ele></ele><time>2014-5-1T18:13:4Z</time></trkpt>
<trkpt lat="-0.014037" lon="330.3"><ele></ele><time>2014-5-1T18:13:7Z</time></trkpt>
<trkpt lat="-0.014233" lon="331.1"><ele></ele><time>2014-5-1T18:13:10Z</time></trkpt>
<trkpt lat="-0.014480" lon="331.7"><ele></ele><time>2014-5-1T18:13:13Z</time></trkpt>
<trkpt lat="-0.014910" lon="330.9"><ele></ele><time>2014-5-1T18:13:16Z</time></trkpt>
<trkpt lat="-0.015535" lon="331.9"><ele></ele><time>2014-5-1T18:13:19Z</time></trkpt>
<trkpt lat="-0.015943" lon="332.6"><ele></ele><time>2014-5-1T18:13:22Z</time></trkpt>
<trkpt lat="-0.016088" lon="330.9"><ele></ele><time>2014-5-1T18:13:25Z</time></trkpt>
<trkpt lat="-0.016218" lon="330.1"><ele></ele><time>2014-5-1T18:13:28Z</time></trkpt>
<trkpt lat="-0.016427" lon="331.3"><ele></ele><time>2014-5-1T18:13:31Z</time></trkpt>
<trkpt lat="-0.016605" lon="331.3"><ele></ele><time>2014-5-1T18:13:34Z</time></trkpt>
<trkpt lat="-0.016779" lon="330.3"><ele></ele><time>2014-5-1T18:13:37Z</time></trkpt>
<trkpt lat="-0.016936" lon="328.4"><ele></ele><time>2014-5-1T18:13:40Z</time></trkpt>
<trkpt lat="-0.017047" lon="328.0"><ele></ele><time>2014-5-1T18:13:43Z</time></trkpt>
<trkpt lat="-0.017222" lon="329.0"><ele></ele><time>2014-5-1T18:13:46Z</time></trkpt>
<trkpt lat="-0.017468" lon="330.4"><ele></ele><time>2014-5-1T18:13:49Z</time></trkpt>
<trkpt lat="-0.017739" lon="330.6"><ele></ele><time>2014-5-1T18:13:52Z</time></trkpt>
<trkpt lat="-0.018070" lon="332.1"><ele></ele><time>2014-5-1T18:13:55Z</time></trkpt>
<trkpt lat="-0.018413" lon="331.0"><ele></ele><time>2014-5-1T18:13:58Z</time></trkpt>
<trkpt lat="-0.018779" lon="331.1"><ele></ele><time>2014-5-1T18:14:1Z</time></trkpt>
<trkpt lat="-0.018888" lon="330.3"><ele></ele><time>2014-5-1T18:14:4Z</time></trkpt>
<trkpt lat="-0.018984" lon="331.0"><ele></ele><time>2014-5-1T18:14:7Z</time></trkpt>
<trkpt lat="-0.019079" lon="332.5"><ele></ele><time>2014-5-1T18:14:10Z</time></trkpt>
<trkpt lat="-0.019131" lon="332.1"><ele></ele><time>2014-5-1T18:14:13Z</time></trkpt>
<trkpt lat="-0.019178" lon="332.8"><ele></ele><time>2014-5-1T18:14:16Z</time></trkpt>
<trkpt lat="-0.019253" lon="333.3"><ele></ele><time>2014-5-1T18:14:19Z</time></trkpt>
<trkpt lat="-0.019346" lon="334.5"><ele></ele><time>2014-5-1T18:14:22Z</time></trkpt>
<trkpt lat="-0.019403" lon="334.2"><ele></ele><time>2014-5-1T18:14:25Z</time></trkpt>
<trkpt lat="-0.019438" lon="334.9"><ele></ele><time>2014-5-1T18:14:28Z</time></trkpt>
<trkpt lat="-0.019447" lon="335.2"><ele></ele><time>2014-5-1T18:14:31Z</time></trkpt>
<trkpt lat="-0.019220" lon="334.3"><ele></ele><time>2014-5-1T18:14:34Z</time></trkpt>
<trkpt lat="-0.019105" lon="333.2"><ele></ele><time>2014-5-1T18:14:37Z</time></trkpt>
<trkpt lat="-0.018863" lon="332.9"><ele></ele><time>2014-5-1T18:14:40Z</time></trkpt>
<trkpt lat="-0.018660" lon="333.1"><ele></ele><time>2014-5-1T18:14:43Z</time></trkpt>
<trkpt lat="-0.018559" lon="333.7"><ele></ele><time>2014-5-1T18:14:46Z</time></trkpt>
<trkpt lat="-0.018529" lon="334.7"><ele></ele><time>2014-5-1T18:14:49Z</time></trkpt>
<trkpt lat="-0.018487" lon="334.6"><ele></ele><time>2014-5-1T18:14:52Z</time></trkpt>
<trkpt lat="-0.018384" lon="335.3"><ele></ele><time>2014-5-1T18:14:55Z</time></trkpt>
<trkpt lat="-0.018289" lon="335.8"><ele></ele><time>2014-5-1T18:14:58Z</time></trkpt>
<trkpt lat="-0.018394" lon="336.2"><ele></ele><time>2014-5-1T18:15:1Z</time></trkpt>
<trkpt lat="-0.018533" lon="337.6"><ele></ele><time>2014-5-1T18:15:4Z</time></trkpt>
<trkpt lat="-0.018697" lon="337.7"><ele></ele><time>2014-5-1T18:15:7Z</time></trkpt>
<trkpt lat="-0.018803" lon="335.8"><ele></ele><time>2014-5-1T18:15:10Z</time></trkpt>
<trkpt lat="-0.019777" lon="331.7"><ele></ele><time>2014-5-1T18:15:13Z</time></trkpt>
<trkpt lat="-0.020989" lon="327.4"><ele></ele><time>2014-5-1T18:15:16Z</time></trkpt>
<trkpt lat="-0.020986" lon="321.9"><ele></ele><time>2014-5-1T18:15:19Z</time></trkpt>
<trkpt lat="-0.021421" lon="316.5"><ele></ele><time>2014-5-1T18:15:22Z</time></trkpt>
<trkpt lat="-0.021640" lon="311.3"><ele></ele><time>2014-5-1T18:15:25Z</time></trkpt>
<trkpt lat="-0.022727" lon="307.7"><ele></ele><time>2014-5-1T18:15:28Z</time></trkpt>
<trkpt lat="-0.023036" lon="302.8"><ele></ele><time>2014-5-1T18:15:31Z</time></trkpt>
<trkpt lat="-0.023122" lon="299.1"><ele></ele><time>2014-5-1T18:15:34Z</time></trkpt>
<trkpt lat="-0.023317" lon="293.1"><ele></ele><time>2014-5-1T18:15:37Z</time></trkpt>
<trkpt lat="-0.023406" lon="288.8"><ele></ele><time>2014-5-1T18:15:40Z</time></trkpt>
<trkpt lat="-0.023788" lon="283.7"><ele></ele><time>2014-5-1T18:15:43Z</time></trkpt>
<trkpt lat="-0.024010" lon="276.8"><ele></ele><time>2014-5-1T18:15:46Z</time></trkpt>
<trkpt lat="-0.024525" lon="265.8"><ele></ele><time>2014-5-1T18:15:49Z</time></trkpt>
<trkpt lat="-0.025555" lon="252.4"><ele></ele><time>2014-5-1T18:15:52Z</time></trkpt>
<trkpt lat="-0.026455" lon="246.5"><ele></ele><time>2014-5-1T18:15:55Z</time></trkpt>
<trkpt lat="-0.027048" lon="242.0"><ele></ele><time>2014-5-1T18:15:58Z</time></trkpt>
<trkpt lat="-0.027964" lon="239.9"><ele></ele><time>2014-5-1T18:16:1Z</time></trkpt>
<trkpt lat="-0.028918" lon="235.4"><ele></ele><time>2014-5-1T18:16:4Z</time></trkpt>
<trkpt lat="-0.029617" lon="233.3"><ele></ele><time>2014-5-1T18:16:7Z</time></trkpt>
<trkpt lat="-0.029527" lon="232.5"><ele></ele><time>2014-5-1T18:16:10Z</time></trkpt>
<trkpt lat="-0.029538" lon="231.7"><ele></ele><time>2014-5-1T18:16:13Z</time></trkpt>
<trkpt lat="-0.029532" lon="231.6"><ele></ele><time>2014-5-1T18:16:16Z</time></trkpt>
<trkpt lat="-0.029448" lon="230.8"><ele></ele><time>2014-5-1T18:16:19Z</time></trkpt>
<trkpt lat="-0.029344" lon="230.4"><ele></ele><time>2014-5-1T18:16:22Z</time></trkpt>
<trkpt lat="-0.029683" lon="230.1"><ele></ele><time>2014-5-1T18:16:25Z</time></trkpt>
<trkpt lat="-0.030106" lon="229.8"><ele></ele><time>2014-5-1T18:16:28Z</time></trkpt>
<trkpt lat="-0.030608" lon="230.7"><ele></ele><time>2014-5-1T18:16:31Z</time></trkpt>
<trkpt lat="-0.031280" lon="231.7"><ele></ele><time>2014-5-1T18:16:34Z</time></trkpt>
<trkpt lat="-0.031814" lon="232.9"><ele></ele><time>2014-5-1T18:16:37Z</time></trkpt>
<trkpt lat="-0.032362" lon="233.5"><ele></ele><time>2014-5-1T18:16:40Z</time></trkpt>
<trkpt lat="-0.032972" lon="234.9"><ele></ele><time>2014-5-1T18:16:43Z</time></trkpt>
<trkpt lat="-0.033597" lon="235.9"><ele></ele><time>2014-5-1T18:16:46Z</time></trkpt>
<trkpt lat="-0.034225" lon="237.2"><ele></ele><time>2014-5-1T18:16:49Z</time></trkpt>
<trkpt lat="-0.034886" lon="237.7"><ele></ele><time>2014-5-1T18:16:52Z</time></trkpt>
<trkpt lat="-0.035572" lon="238.1"><ele></ele><time>2014-5-1T18:16:55Z</time></trkpt>
<trkpt lat="-0.036243" lon="238.6"><ele></ele><time>2014-5-1T18:16:58Z</time></trkpt>
<trkpt lat="-0.036882" lon="239.6"><ele></ele><time>2014-5-1T18:17:1Z</time></trkpt>
<trkpt lat="-0.037435" lon="240.8"><ele></ele><time>2014-5-1T18:17:4Z</time></trkpt>
<trkpt lat="-0.037878" lon="243.1"><ele></ele><time>2014-5-1T18:17:7Z</time></trkpt>
<trkpt lat="-0.038344" lon="244.9"><ele></ele><time>2014-5-1T18:17:10Z</time></trkpt>
<trkpt lat="-0.038803" lon="246.9"><ele></ele><time>2014-5-1T18:17:13Z</time></trkpt>
<trkpt lat="-0.039273" lon="248.9"><ele></ele><time>2014-5-1T18:17:16Z</time></trkpt>
<trkpt lat="-0.039787" lon="250.1"><ele></ele><time>2014-5-1T18:17:19Z</time></trkpt>
<trkpt lat="-0.040348" lon="250.9"><ele></ele><time>2014-5-1T18:17:22Z</time></trkpt>
<trkpt lat="-0.040466" lon="251.8"><ele></ele><time>2014-5-1T18:17:25Z</time></trkpt>
<trkpt lat="-0.040602" lon="252.2"><ele></ele><time>2014-5-1T18:17:28Z</time></trkpt>
<trkpt lat="-0.040640" lon="252.5"><ele></ele><time>2014-5-1T18:17:31Z</time></trkpt>
<trkpt lat="-0.041209" lon="252.7"><ele></ele><time>2014-5-1T18:17:34Z</time></trkpt>
<trkpt lat="-0.041869" lon="253.2"><ele></ele><time>2014-5-1T18:17:37Z</time></trkpt>
<trkpt lat="-0.042282" lon="253.6"><ele></ele><time>2014-5-1T18:17:40Z</time></trkpt>
<trkpt lat="-0.043000" lon="254.3"><ele></ele><time>2014-5-1T18:17:43Z</time></trkpt>
<trkpt lat="-0.043402" lon="254.6"><ele></ele><time>2014-5-1T18:17:46Z</time></trkpt>
<trkpt lat="-0.043894" lon="255.5"><ele></ele><time>2014-5-1T18:17:49Z</time></trkpt>
<trkpt lat="-0.044253" lon="256.8"><ele></ele><time>2014-5-1T18:17:52Z</time></trkpt>
<trkpt lat="-0.044295" lon="258.2"><ele></ele><time>2014-5-1T18:17:55Z</time></trkpt>
<trkpt lat="-0.044234" lon="257.9"><ele></ele><time>2014-5-1T18:17:58Z</time></trkpt>
<trkpt lat="-0.044149" lon="258.0"><ele></ele><time>2014-5-1T18:18:1Z</time></trkpt>
<trkpt lat="-0.044072" lon="258.3"><ele></ele><time>2014-5-1T18:18:4Z</time></trkpt>
<trkpt lat="-0.044021" lon="258.8"><ele></ele><time>2014-5-1T18:18:7Z</time></trkpt>
<trkpt lat="-0.044036" lon="260.4"><ele></ele><time>2014-5-1T18:18:10Z</time></trkpt>
<trkpt lat="-0.044016" lon="260.7"><ele></ele><time>2014-5-1T18:18:13Z</time></trkpt>
<trkpt lat="-0.043875" lon="260.3"><ele></ele><time>2014-5-1T18:18:16Z</time></trkpt>
<trkpt lat="-0.043727" lon="259.8"><ele></ele><time>2014-5-1T18:18:19Z</time></trkpt>
<trkpt lat="-0.043587" lon="260.4"><ele></ele><time>2014-5-1T18:18:22Z</time></trkpt>
<trkpt lat="-0.043448" lon="259.5"><ele></ele><time>2014-5-1T18:18:25Z</time></trkpt>
<trkpt lat="-0.043122" lon="258.4"><ele></ele><time>2014-5-1T18:18:28Z</time></trkpt>
<trkpt lat="-0.042621" lon="257.6"><ele></ele><time>2014-5-1T18:18:31Z</time></trkpt>
<trkpt lat="-0.042097" lon="256.1"><ele></ele><time>2014-5-1T18:18:34Z</time></trkpt>
<trkpt lat="-0.041441" lon="255.5"><ele></ele><time>2014-5-1T18:18:37Z</time></trkpt>
<trkpt lat="-0.040352" lon="253.7"><ele></ele><time>2014-5-1T18:18:40Z</time></trkpt>
<trkpt lat="-0.039735" lon="252.3"><ele></ele><time>2014-5-1T18:18:43Z</time></trkpt>
<trkpt lat="-0.039170" lon="251.4"><ele></ele><time>2014-5-1T18:18:46Z</time></trkpt>
<trkpt lat="-0.038740" lon="251.4"><ele></ele><time>2014-5-1T18:18:49Z</time></trkpt>
<trkpt lat="-0.038365" lon="251.4"><ele></ele><time>2014-5-1T18:18:52Z</time></trkpt>
<trkpt lat="-0.037956" lon="251.2"><ele></ele><time>2014-5-1T18:18:55Z</time></trkpt>
<trkpt lat="-0.037471" lon="250.7"><ele></ele><time>2014-5-1T18:18:58Z</time></trkpt>
<trkpt lat="-0.036923" lon="249.8"><ele></ele><time>2014-5-1T18:19:1Z</time></trkpt>
<trkpt lat="-0.036327" lon="247.9"><ele></ele><time>2014-5-1T18:19:4Z</time></trkpt>
<trkpt lat="-0.035722" lon="246.3"><ele></ele><time>2014-5-1T18:19:7Z</time></trkpt>
<trkpt lat="-0.035308" lon="245.8"><ele></ele><time>2014-5-1T18:19:10Z</time></trkpt>
<trkpt lat="-0.035130" lon="244.7"><ele></ele><time>2014-5-1T18:19:13Z</time></trkpt>
<trkpt lat="-0.034971" lon="243.3"><ele></ele><time>2014-5-1T18:19:16Z</time></trkpt>
<trkpt lat="-0.034811" lon="242.8"><ele></ele><time>2014-5-1T18:19:19Z</time></trkpt>
<trkpt lat="-0.034653" lon="242.5"><ele></ele><time>2014-5-1T18:19:22Z</time></trkpt>
<trkpt lat="-0.034527" lon="242.7"><ele></ele><time>2014-5-1T18:19:25Z</time></trkpt>
<trkpt lat="-0.034690" lon="241.2"><ele></ele><time>2014-5-1T18:19:28Z</time></trkpt>
<trkpt lat="-0.034614" lon="240.2"><ele></ele><time>2014-5-1T18:19:31Z</time></trkpt>
<trkpt lat="-0.034665" lon="239.8"><ele></ele><time>2014-5-1T18:19:34Z</time></trkpt>
<trkpt lat="-0.035103" lon="239.7"><ele></ele><time>2014-5-1T18:19:37Z</time></trkpt>
<trkpt lat="-0.035576" lon="240.6"><ele></ele><time>2014-5-1T18:19:40Z</time></trkpt>
<trkpt lat="-0.036072" lon="240.4"><ele></ele><time>2014-5-1T18:19:43Z</time></trkpt>
<trkpt lat="-0.036585" lon="240.4"><ele></ele><time>2014-5-1T18:19:46Z</time></trkpt>
<trkpt lat="-0.037105" lon="240.4"><ele></ele><time>2014-5-1T18:19:49Z</time></trkpt>
<trkpt lat="-0.037626" lon="240.4"><ele></ele><time>2014-5-1T18:19:52Z</time></trkpt>
<trkpt lat="-0.038155" lon="240.9"><ele></ele><time>2014-5-1T18:19:55Z</time></trkpt>
<trkpt lat="-0.038614" lon="242.4"><ele></ele><time>2014-5-1T18:19:58Z</time></trkpt>
<trkpt lat="-0.039039" lon="243.4"><ele></ele><time>2014-5-1T18:20:1Z</time></trkpt>
<trkpt lat="-0.039395" lon="244.9"><ele></ele><time>2014-5-1T18:20:4Z</time></trkpt>
<trkpt lat="-0.039789" lon="246.8"><ele></ele><time>2014-5-1T18:20:7Z</time></trkpt>
<trkpt lat="-0.040175" lon="248.0"><ele></ele><time>2014-5-1T18:20:10Z</time></trkpt>
<trkpt lat="-0.040554" lon="247.9"><ele></ele><time>2014-5-1T18:20:13Z</time></trkpt>
<trkpt lat="-0.040913" lon="249.3"><ele></ele><time>2014-5-1T18:20:16Z</time></trkpt>
<trkpt lat="-0.041285" lon="250.9"><ele></ele><time>2014-5-1T18:20:19Z</time></trkpt>
<trkpt lat="-0.041699" lon="251.4"><ele></ele><time>2014-5-1T18:20:22Z</time></trkpt>
<trkpt lat="-0.042126" lon="251.9"><ele></ele><time>2014-5-1T18:20:25Z</time></trkpt>
<trkpt lat="-0.042506" lon="252.7"><ele></ele><time>2014-5-1T18:20:28Z</time></trkpt>
<trkpt lat="-0.042891" lon="253.4"><ele></ele><time>2014-5-1T18:20:31Z</time></trkpt>
<trkpt lat="-0.043295" lon="254.0"><ele></ele><time>2014-5-1T18:20:34Z</time></trkpt>
<trkpt lat="-0.043760" lon="254.5"><ele></ele><time>2014-5-1T18:20:37Z</time></trkpt>
<trkpt lat="-0.044312" lon="255.1"><ele></ele><time>2014-5-1T18:20:40Z</time></trkpt>
<trkpt lat="-0.044844" lon="256.1"><ele></ele><time>2014-5-1T18:20:43Z</time></trkpt>
<trkpt lat="-0.045349" lon="256.7"><ele></ele><time>2014-5-1T18:20:46Z</time></trkpt>
<trkpt lat="-0.045807" lon="257.6"><ele></ele><time>2014-5-1T18:20:49Z</time></trkpt>
<trkpt lat="-0.046248" lon="258.2"><ele></ele><time>2014-5-1T18:20:52Z</time></trkpt>
<trkpt lat="-0.046676" lon="259.6"><ele></ele><time>2014-5-1T18:20:55Z</time></trkpt>
<trkpt lat="-0.047125" lon="260.8"><ele></ele><time>2014-5-1T18:20:58Z</time></trkpt>
<trkpt lat="-0.047566" lon="262.8"><ele></ele><time>2014-5-1T18:21:1Z</time></trkpt>
<trkpt lat="-0.048007" lon="264.2"><ele></ele><time>2014-5-1T18:21:4Z</time></trkpt>
<trkpt lat="-0.048396" lon="266.5"><ele></ele><time>2014-5-1T18:21:7Z</time></trkpt>
<trkpt lat="-0.048807" lon="267.0"><ele></ele><time>2014-5-1T18:21:10Z</time></trkpt>
<trkpt lat="-0.049252" lon="268.5"><ele></ele><time>2014-5-1T18:21:13Z</time></trkpt>
<trkpt lat="-0.049752" lon="268.8"><ele></ele><time>2014-5-1T18:21:16Z</time></trkpt>
<trkpt lat="-0.050201" lon="269.6"><ele></ele><time>2014-5-1T18:21:19Z</time></trkpt>
<trkpt lat="-0.050409" lon="273.2"><ele></ele><time>2014-5-1T18:21:22Z</time></trkpt>
<trkpt lat="-0.050779" lon="273.9"><ele></ele><time>2014-5-1T18:21:25Z</time></trkpt>
<trkpt lat="-0.051177" lon="274.1"><ele></ele><time>2014-5-1T18:21:28Z</time></trkpt>
<trkpt lat="-0.051602" lon="273.7"><ele></ele><time>2014-5-1T18:21:31Z</time></trkpt>
<trkpt lat="-0.051930" lon="274.8"><ele></ele><time>2014-5-1T18:21:34Z</time></trkpt>
<trkpt lat="-0.052128" lon="276.9"><ele></ele><time>2014-5-1T18:21:37Z</time></trkpt>
<trkpt lat="-0.052416" lon="279.0"><ele></ele><time>2014-5-1T18:21:40Z</time></trkpt>
<trkpt lat="-0.052782" lon="280.7"><ele></ele><time>2014-5-1T18:21:43Z</time></trkpt>
<trkpt lat="-0.053065" lon="281.6"><ele></ele><time>2014-5-1T18:21:46Z</time></trkpt>
<trkpt lat="-0.053324" lon="282.8"><ele></ele><time>2014-5-1T18:21:49Z</time></trkpt>
<trkpt lat="-0.053607" lon="284.4"><ele></ele><time>2014-5-1T18:21:52Z</time></trkpt>
<trkpt lat="-0.053726" lon="287.4"><ele></ele><time>2014-5-1T18:21:55Z</time></trkpt>
<trkpt lat="-0.053899" lon="287.7"><ele></ele><time>2014-5-1T18:21:58Z</time></trkpt>
<trkpt lat="-0.054072" lon="288.8"><ele></ele><time>2014-5-1T18:22:1Z</time></trkpt>
<trkpt lat="-0.054275" lon="290.2"><ele></ele><time>2014-5-1T18:22:4Z</time></trkpt>
<trkpt lat="-0.054474" lon="292.6"><ele></ele><time>2014-5-1T18:22:7Z</time></trkpt>
<trkpt lat="-0.054679" lon="294.2"><ele></ele><time>2014-5-1T18:22:10Z</time></trkpt>
<trkpt lat="-0.054930" lon="296.4"><ele></ele><time>2014-5-1T18:22:13Z</time></trkpt>
<trkpt lat="-0.055134" lon="296.9"><ele></ele><time>2014-5-1T18:22:16Z</time></trkpt>
<trkpt lat="-0.055266" lon="297.8"><ele></ele><time>2014-5-1T18:22:19Z</time></trkpt>
<trkpt lat="-0.055382" lon="299.9"><ele></ele><time>2014-5-1T18:22:22Z</time></trkpt>
<trkpt lat="-0.055495" lon="301.5"><ele></ele><time>2014-5-1T18:22:25Z</time></trkpt>
<trkpt lat="-0.055617" lon="303.5"><ele></ele><time>2014-5-1T18:22:28Z</time></trkpt>
<trkpt lat="-0.055743" lon="305.1"><ele></ele><time>2014-5-1T18:22:31Z</time></trkpt>
<trkpt lat="-0.055835" lon="306.3"><ele></ele><time>2014-5-1T18:22:34Z</time></trkpt>
<trkpt lat="-0.055930" lon="307.0"><ele></ele><time>2014-5-1T18:22:37Z</time></trkpt>
<trkpt lat="-0.056079" lon="308.4"><ele></ele><time>2014-5-1T18:22:40Z</time></trkpt>
<trkpt lat="-0.056213" lon="309.8"><ele></ele><time>2014-5-1T18:22:43Z</time></trkpt>
<trkpt lat="-0.056375" lon="311.0"><ele></ele><time>2014-5-1T18:22:46Z</time></trkpt>
<trkpt lat="-0.056545" lon="312.2"><ele></ele><time>2014-5-1T18:22:49Z</time></trkpt>
<trkpt lat="-0.056724" lon="314.7"><ele></ele><time>2014-5-1T18:22:52Z</time></trkpt>
<trkpt lat="-0.056923" lon="317.4"><ele></ele><time>2014-5-1T18:22:55Z</time></trkpt>
<trkpt lat="-0.057106" lon="319.3"><ele></ele><time>2014-5-1T18:22:58Z</time></trkpt>
<trkpt lat="-0.057229" lon="322.8"><ele></ele><time>2014-5-1T18:23:1Z</time></trkpt>
<trkpt lat="-0.057296" lon="324.7"><ele></ele><time>2014-5-1T18:23:4Z</time></trkpt>
<trkpt lat="-0.057098" lon="325.6"><ele></ele><time>2014-5-1T18:23:7Z</time></trkpt>
<trkpt lat="-0.056428" lon="325.3"><ele></ele><time>2014-5-1T18:23:10Z</time></trkpt>
<trkpt lat="-0.056134" lon="324.9"><ele></ele><time>2014-5-1T18:23:13Z</time></trkpt>
<trkpt lat="-0.055969" lon="320.1"><ele></ele><time>2014-5-1T18:23:16Z</time></trkpt>
<trkpt lat="-0.055555" lon="317.8"><ele></ele><time>2014-5-1T18:23:19Z</time></trkpt>
<trkpt lat="-0.055249" lon="314.5"><ele></ele><time>2014-5-1T18:23:22Z</time></trkpt>
<trkpt lat="-0.054413" lon="315.6"><ele></ele><time>2014-5-1T18:23:25Z</time></trkpt>
<trkpt lat="-0.054042" lon="317.9"><ele></ele><time>2014-5-1T18:23:28Z</time></trkpt>
<trkpt lat="-0.053976" lon="316.1"><ele></ele><time>2014-5-1T18:23:31Z</time></trkpt>
<trkpt lat="-0.053889" lon="312.0"><ele></ele><time>2014-5-1T18:23:34Z</time></trkpt>
<trkpt lat="-0.053534" lon="309.6"><ele></ele><time>2014-5-1T18:23:37Z</time></trkpt>
<trkpt lat="-0.052833" lon="311.2"><ele></ele><time>2014-5-1T18:23:40Z</time></trkpt>
<trkpt lat="-0.052001" lon="311.9"><ele></ele><time>2014-5-1T18:23:43Z</time></trkpt>
<trkpt lat="-0.051462" lon="311.8"><ele></ele><time>2014-5-1T18:23:46Z</time></trkpt>
<trkpt lat="-0.051330" lon="312.4"><ele></ele><time>2014-5-1T18:23:49Z</time></trkpt>
<trkpt lat="-0.051159" lon="312.4"><ele></ele><time>2014-5-1T18:23:52Z</time></trkpt>
<trkpt lat="-0.050972" lon="313.7"><ele></ele><time>2014-5-1T18:23:55Z</time></trkpt>
<trkpt lat="-0.050824" lon="313.3"><ele></ele><time>2014-5-1T18:23:58Z</time></trkpt>
<trkpt lat="-0.050513" lon="310.5"><ele></ele><time>2014-5-1T18:24:1Z</time></trkpt>
<trkpt lat="-0.050162" lon="306.3"><ele></ele><time>2014-5-1T18:24:4Z</time></trkpt>
<trkpt lat="-0.049942" lon="303.8"><ele></ele><time>2014-5-1T18:24:7Z</time></trkpt>
<trkpt lat="-0.049872" lon="304.0"><ele></ele><time>2014-5-1T18:24:10Z</time></trkpt>
<trkpt lat="-0.049801" lon="303.6"><ele></ele><time>2014-5-1T18:24:13Z</time></trkpt>
<trkpt lat="-0.049998" lon="304.6"><ele></ele><time>2014-5-1T18:24:16Z</time></trkpt>
<trkpt lat="-0.050182" lon="303.0"><ele></ele><time>2014-5-1T18:24:19Z</time></trkpt>
<trkpt lat="-0.050352" lon="302.5"><ele></ele><time>2014-5-1T18:24:22Z</time></trkpt>
<trkpt lat="-0.050515" lon="302.9"><ele></ele><time>2014-5-1T18:24:25Z</time></trkpt>
<trkpt lat="-0.050623" lon="304.7"><ele></ele><time>2014-5-1T18:24:28Z</time></trkpt>
<trkpt lat="-0.050899" lon="298.9"><ele></ele><time>2014-5-1T18:24:31Z</time></trkpt>
<trkpt lat="-0.051668" lon="300.8"><ele></ele><time>2014-5-1T18:24:34Z</time></trkpt>
<trkpt lat="-0.051625" lon="304.6"><ele></ele><time>2014-5-1T18:24:37Z</time></trkpt>
<trkpt lat="-0.051300" lon="302.1"><ele></ele><time>2014-5-1T18:24:40Z</time></trkpt>
<trkpt lat="-0.050992" lon="303.3"><ele></ele><time>2014-5-1T18:24:43Z</time></trkpt>
<trkpt lat="-0.050822" lon="304.7"><ele></ele><time>2014-5-1T18:24:46Z</time></trkpt>
<trkpt lat="-0.050711" lon="305.4"><ele></ele><time>2014-5-1T18:24:49Z</time></trkpt>
<trkpt lat="-0.050636" lon="306.2"><ele></ele><time>2014-5-1T18:24:52Z</time></trkpt>
<trkpt lat="-0.050567" lon="307.3"><ele></ele><time>2014-5-1T18:24:55Z</time></trkpt>
<trkpt lat="-0.050457" lon="307.9"><ele></ele><time>2014-5-1T18:24:58Z</time></trkpt>
<trkpt lat="-0.050316" lon="308.3"><ele></ele><time>2014-5-1T18:25:1Z</time></trkpt>
<trkpt lat="-0.050134" lon="309.5"><ele></ele><time>2014-5-1T18:25:4Z</time></trkpt>
<trkpt lat="-0.049979" lon="311.7"><ele></ele><time>2014-5-1T18:25:7Z</time></trkpt>
<trkpt lat="-0.049642" lon="313.0"><ele></ele><time>2014-5-1T18:25:10Z</time></trkpt>
<trkpt lat="-0.049159" lon="315.6"><ele></ele><time>2014-5-1T18:25:13Z</time></trkpt>
<trkpt lat="-0.048981" lon="316.3"><ele></ele><time>2014-5-1T18:25:16Z</time></trkpt>
<trkpt lat="-0.048797" lon="316.0"><ele></ele><time>2014-5-1T18:25:19Z</time></trkpt>
<trkpt lat="-0.048717" lon="316.7"><ele></ele><time>2014-5-1T18:25:22Z</time></trkpt>
<trkpt lat="-0.048568" lon="316.1"><ele></ele><time>2014-5-1T18:25:25Z</time></trkpt>
<trkpt lat="-0.048442" lon="316.8"><ele></ele><time>2014-5-1T18:25:28Z</time></trkpt>
<trkpt lat="-0.048246" lon="317.1"><ele></ele><time>2014-5-1T18:25:31Z</time></trkpt>
<trkpt lat="-0.048083" lon="316.8"><ele></ele><time>2014-5-1T18:25:34Z</time></trkpt>
<trkpt lat="-0.047791" lon="316.4"><ele></ele><time>2014-5-1T18:25:37Z</time></trkpt>
<trkpt lat="-0.047429" lon="315.8"><ele></ele><time>2014-5-1T18:25:40Z</time></trkpt>
<trkpt lat="-0.047123" lon="314.3"><ele></ele><time>2014-5-1T18:25:43Z</time></trkpt>
<trkpt lat="-0.046635" lon="310.1"><ele></ele><time>2014-5-1T18:25:46Z</time></trkpt>
<trkpt lat="-0.046515" lon="307.6"><ele></ele><time>2014-5-1T18:25:49Z</time></trkpt>
<trkpt lat="-0.046777" lon="312.2"><ele></ele><time>2014-5-1T18:25:52Z</time></trkpt>
<trkpt lat="-0.046862" lon="311.8"><ele></ele><time>2014-5-1T18:25:55Z</time></trkpt>
<trkpt lat="-0.046928" lon="311.9"><ele></ele><time>2014-5-1T18:25:58Z</time></trkpt>
<trkpt lat="-0.046972" lon="310.9"><ele></ele><time>2014-5-1T18:26:1Z</time></trkpt>
<trkpt lat="-0.047064" lon="310.6"><ele></ele><time>2014-5-1T18:26:4Z</time></trkpt>
<trkpt lat="-0.047191" lon="309.7"><ele></ele><time>2014-5-1T18:26:7Z</time></trkpt>
<trkpt lat="-0.047296" lon="309.9"><ele></ele><time>2014-5-1T18:26:10Z</time></trkpt>
<trkpt lat="-0.047411" lon="310.1"><ele></ele><time>2014-5-1T18:26:13Z</time></trkpt>
<trkpt lat="-0.047517" lon="310.2"><ele></ele><time>2014-5-1T18:26:16Z</time></trkpt>
<trkpt lat="-0.047657" lon="310.2"><ele></ele><time>2014-5-1T18:26:19Z</time></trkpt>
<trkpt lat="-0.047842" lon="309.9"><ele></ele><time>2014-5-1T18:26:22Z</time></trkpt>
<trkpt lat="-0.048022" lon="309.5"><ele></ele><time>2014-5-1T18:26:25Z</time></trkpt>
<trkpt lat="-0.048214" lon="309.4"><ele></ele><time>2014-5-1T18:26:28Z</time></trkpt>
<trkpt lat="-0.048432" lon="307.9"><ele></ele><time>2014-5-1T18:26:31Z</time></trkpt>
<trkpt lat="-0.048616" lon="308.2"><ele></ele><time>2014-5-1T18:26:34Z</time></trkpt>
<trkpt lat="-0.048775" lon="307.7"><ele></ele><time>2014-5-1T18:26:37Z</time></trkpt>
<trkpt lat="-0.049035" lon="313.1"><ele></ele><time>2014-5-1T18:26:40Z</time></trkpt>
<trkpt lat="-0.049271" lon="312.1"><ele></ele><time>2014-5-1T18:26:43Z</time></trkpt>
<trkpt lat="-0.049481" lon="312.0"><ele></ele><time>2014-5-1T18:26:46Z</time></trkpt>
<trkpt lat="-0.049588" lon="312.4"><ele></ele><time>2014-5-1T18:26:49Z</time></trkpt>
<trkpt lat="-0.049401" lon="313.0"><ele></ele><time>2014-5-1T18:26:52Z</time></trkpt>
<trkpt lat="-0.049471" lon="307.7"><ele></ele><time>2014-5-1T18:26:55Z</time></trkpt>
<trkpt lat="-0.049525" lon="310.8"><ele></ele><time>2014-5-1T18:26:58Z</time></trkpt>
<trkpt lat="-0.049944" lon="309.1"><ele></ele><time>2014-5-1T18:27:1Z</time></trkpt>
<trkpt lat="-0.050323" lon="309.1"><ele></ele><time>2014-5-1T18:27:4Z</time></trkpt>
<trkpt lat="-0.050670" lon="308.1"><ele></ele><time>2014-5-1T18:27:7Z</time></trkpt>
<trkpt lat="-0.050907" lon="302.7"><ele></ele><time>2014-5-1T18:27:10Z</time></trkpt>
<trkpt lat="-0.051080" lon="297.2"><ele></ele><time>2014-5-1T18:27:13Z</time></trkpt>
<trkpt lat="-0.050994" lon="310.6"><ele></ele><time>2014-5-1T18:27:16Z</time></trkpt>
<trkpt lat="-0.050838" lon="310.9"><ele></ele><time>2014-5-1T18:27:19Z</time></trkpt>
<trkpt lat="-0.050707" lon="310.6"><ele></ele><time>2014-5-1T18:27:22Z</time></trkpt>
<trkpt lat="-0.050521" lon="309.6"><ele></ele><time>2014-5-1T18:27:25Z</time></trkpt>
<trkpt lat="-0.050275" lon="308.9"><ele></ele><time>2014-5-1T18:27:28Z</time></trkpt>
<trkpt lat="-0.050097" lon="308.4"><ele></ele><time>2014-5-1T18:27:31Z</time></trkpt>
<trkpt lat="-0.049927" lon="307.9"><ele></ele><time>2014-5-1T18:27:34Z</time></trkpt>
<trkpt lat="-0.049755" lon="306.9"><ele></ele><time>2014-5-1T18:27:37Z</time></trkpt>
<trkpt lat="-0.049688" lon="306.4"><ele></ele><time>2014-5-1T18:27:40Z</time></trkpt>
<trkpt lat="-0.049586" lon="306.2"><ele></ele><time>2014-5-1T18:27:43Z</time></trkpt>
<trkpt lat="-0.049429" lon="307.9"><ele></ele><time>2014-5-1T18:27:46Z</time></trkpt>
<trkpt lat="-0.049332" lon="308.6"><ele></ele><time>2014-5-1T18:27:49Z</time></trkpt>
<trkpt lat="-0.049263" lon="309.5"><ele></ele><time>2014-5-1T18:27:52Z</time></trkpt>
<trkpt lat="-0.049159" lon="309.7"><ele></ele><time>2014-5-1T18:27:55Z</time></trkpt>
<trkpt lat="-0.048956" lon="309.5"><ele></ele><time>2014-5-1T18:27:58Z</time></trkpt>
<trkpt lat="-0.048654" lon="309.7"><ele></ele><time>2014-5-1T18:28:1Z</time></trkpt>
<trkpt lat="-0.048302" lon="308.9"><ele></ele><time>2014-5-1T18:28:4Z</time></trkpt>
<trkpt lat="-0.048042" lon="307.8"><ele></ele><time>2014-5-1T18:28:7Z</time></trkpt>
<trkpt lat="-0.047684" lon="306.9"><ele></ele><time>2014-5-1T18:28:10Z</time></trkpt>
<trkpt lat="-0.047339" lon="308.4"><ele></ele><time>2014-5-1T18:28:13Z</time></trkpt>
<trkpt lat="-0.046997" lon="307.3"><ele></ele><time>2014-5-1T18:28:16Z</time></trkpt>
<trkpt lat="-0.046774" lon="307.0"><ele></ele><time>2014-5-1T18:28:19Z</time></trkpt>
<trkpt lat="-0.046648" lon="310.6"><ele></ele><time>2014-5-1T18:28:22Z</time></trkpt>
<trkpt lat="-0.046508" lon="312.2"><ele></ele><time>2014-5-1T18:28:25Z</time></trkpt>
<trkpt lat="-0.046407" lon="311.9"><ele></ele><time>2014-5-1T18:28:28Z</time></trkpt>
<trkpt lat="-0.046255" lon="308.9"><ele></ele><time>2014-5-1T18:28:31Z</time></trkpt>
<trkpt lat="-0.045849" lon="304.2"><ele></ele><time>2014-5-1T18:28:34Z</time></trkpt>
<trkpt lat="-0.045589" lon="298.1"><ele></ele><time>2014-5-1T18:28:37Z</time></trkpt>
<trkpt lat="-0.045040" lon="298.0"><ele></ele><time>2014-5-1T18:28:40Z</time></trkpt>
<trkpt lat="-0.044653" lon="297.5"><ele></ele><time>2014-5-1T18:28:43Z</time></trkpt>
<trkpt lat="-0.044466" lon="294.6"><ele></ele><time>2014-5-1T18:28:46Z</time></trkpt>
<trkpt lat="-0.044235" lon="293.0"><ele></ele><time>2014-5-1T18:28:49Z</time></trkpt>
<trkpt lat="-0.043457" lon="292.2"><ele></ele><time>2014-5-1T18:28:52Z</time></trkpt>
<trkpt lat="-0.042459" lon="291.2"><ele></ele><time>2014-5-1T18:28:55Z</time></trkpt>
<trkpt lat="-0.041372" lon="289.9"><ele></ele><time>2014-5-1T18:28:58Z</time></trkpt>
<trkpt lat="-0.040004" lon="287.3"><ele></ele><time>2014-5-1T18:29:1Z</time></trkpt>
<trkpt lat="-0.038464" lon="285.0"><ele></ele><time>2014-5-1T18:29:4Z</time></trkpt>
<trkpt lat="-0.037123" lon="281.9"><ele></ele><time>2014-5-1T18:29:7Z</time></trkpt>
<trkpt lat="-0.035716" lon="279.6"><ele></ele><time>2014-5-1T18:29:10Z</time></trkpt>
<trkpt lat="-0.034360" lon="277.9"><ele></ele><time>2014-5-1T18:29:13Z</time></trkpt>
<trkpt lat="-0.032841" lon="275.6"><ele></ele><time>2014-5-1T18:29:16Z</time></trkpt>
<trkpt lat="-0.031482" lon="272.4"><ele></ele><time>2014-5-1T18:29:19Z</time></trkpt>
<trkpt lat="-0.030823" lon="269.4"><ele></ele><time>2014-5-1T18:29:22Z</time></trkpt>
<trkpt lat="-0.030415" lon="266.8"><ele></ele><time>2014-5-1T18:29:25Z</time></trkpt>
<trkpt lat="-0.029986" lon="265.6"><ele></ele><time>2014-5-1T18:29:28Z</time></trkpt>
<trkpt lat="-0.029693" lon="264.8"><ele></ele><time>2014-5-1T18:29:31Z</time></trkpt>
<trkpt lat="-0.029077" lon="264.1"><ele></ele><time>2014-5-1T18:29:34Z</time></trkpt>
<trkpt lat="-0.027923" lon="262.0"><ele></ele><time>2014-5-1T18:29:37Z</time></trkpt>
<trkpt lat="-0.027854" lon="260.0"><ele></ele><time>2014-5-1T18:29:40Z</time></trkpt>
<trkpt lat="-0.028147" lon="258.7"><ele></ele><time>2014-5-1T18:29:43Z</time></trkpt>
<trkpt lat="-0.028326" lon="256.3"><ele></ele><time>2014-5-1T18:29:46Z</time></trkpt>
<trkpt lat="-0.028395" lon="252.4"><ele></ele><time>2014-5-1T18:29:49Z</time></trkpt>
<trkpt lat="-0.028156" lon="250.1"><ele></ele><time>2014-5-1T18:29:52Z</time></trkpt>
<trkpt lat="-0.027941" lon="248.2"><ele></ele><time>2014-5-1T18:29:55Z</time></trkpt>
<trkpt lat="-0.027830" lon="247.0"><ele></ele><time>2014-5-1T18:29:58Z</time></trkpt>
<trkpt lat="-0.027786" lon="246.3"><ele></ele><time>2014-5-1T18:30:1Z</time></trkpt>
<trkpt lat="-0.027849" lon="245.3"><ele></ele><time>2014-5-1T18:30:4Z</time></trkpt>
<trkpt lat="-0.027953" lon="244.6"><ele></ele><time>2014-5-1T18:30:7Z</time></trkpt>
<trkpt lat="-0.028182" lon="244.0"><ele></ele><time>2014-5-1T18:30:10Z</time></trkpt>
<trkpt lat="-0.028383" lon="243.1"><ele></ele><time>2014-5-1T18:30:13Z</time></trkpt>
<trkpt lat="-0.028411" lon="241.5"><ele></ele><time>2014-5-1T18:30:16Z</time></trkpt>
<trkpt lat="-0.028366" lon="240.4"><ele></ele><time>2014-5-1T18:30:19Z</time></trkpt>
<trkpt lat="-0.028304" lon="239.1"><ele></ele><time>2014-5-1T18:30:22Z</time></trkpt>
<trkpt lat="-0.028268" lon="238.6"><ele></ele><time>2014-5-1T18:30:25Z</time></trkpt>
<trkpt lat="-0.028308" lon="238.6"><ele></ele><time>2014-5-1T18:30:28Z</time></trkpt>
<trkpt lat="-0.028421" lon="238.3"><ele></ele><time>2014-5-1T18:30:31Z</time></trkpt>
<trkpt lat="-0.028571" lon="237.6"><ele></ele><time>2014-5-1T18:30:34Z</time></trkpt>
<trkpt lat="-0.028745" lon="237.5"><ele></ele><time>2014-5-1T18:30:37Z</time></trkpt>
<trkpt lat="-0.028826" lon="237.1"><ele></ele><time>2014-5-1T18:30:40Z</time></trkpt>
<trkpt lat="-0.028856" lon="236.7"><ele></ele><time>2014-5-1T18:30:43Z</time></trkpt>
<trkpt lat="-0.028883" lon="236.8"><ele></ele><time>2014-5-1T18:30:46Z</time></trkpt>
<trkpt lat="-0.029075" lon="237.3"><ele></ele><time>2014-5-1T18:30:49Z</time></trkpt>
<trkpt lat="-0.029303" lon="237.0"><ele></ele><time>2014-5-1T18:30:52Z</time></trkpt>
<trkpt lat="-0.029675" lon="236.7"><ele></ele><time>2014-5-1T18:30:55Z</time></trkpt>
<trkpt lat="-0.029884" lon="236.4"><ele></ele><time>2014-5-1T18:30:58Z</time></trkpt>
<trkpt lat="-0.030018" lon="236.6"><ele></ele><time>2014-5-1T18:31:1Z</time></trkpt>
<trkpt lat="-0.030249" lon="236.0"><ele></ele><time>2014-5-1T18:31:4Z</time></trkpt>
<trkpt lat="-0.030408" lon="235.6"><ele></ele><time>2014-5-1T18:31:7Z</time></trkpt>
<trkpt lat="-0.030604" lon="235.8"><ele></ele><time>2014-5-1T18:31:10Z</time></trkpt>
<trkpt lat="-0.030878" lon="235.6"><ele></ele><time>2014-5-1T18:31:13Z</time></trkpt>
<trkpt lat="-0.031201" lon="235.5"><ele></ele><time>2014-5-1T18:31:16Z</time></trkpt>
<trkpt lat="-0.031570" lon="235.2"><ele></ele><time>2014-5-1T18:31:19Z</time></trkpt>
<trkpt lat="-0.031813" lon="234.7"><ele></ele><time>2014-5-1T18:31:22Z</time></trkpt>
<trkpt lat="-0.031049" lon="234.4"><ele></ele><time>2014-5-1T18:31:25Z</time></trkpt>
<trkpt lat="-0.029961" lon="232.9"><ele></ele><time>2014-5-1T18:31:28Z</time></trkpt>
<trkpt lat="-0.028859" lon="232.9"><ele></ele><time>2014-5-1T18:31:31Z</time></trkpt>
<trkpt lat="-0.027776" lon="232.5"><ele></ele><time>2014-5-1T18:31:34Z</time></trkpt>
<trkpt lat="-0.026653" lon="232.8"><ele></ele><time>2014-5-1T18:31:37Z</time></trkpt>
<trkpt lat="-0.025483" lon="232.0"><ele></ele><time>2014-5-1T18:31:40Z</time></trkpt>
<trkpt lat="-0.024313" lon="230.6"><ele></ele><time>2014-5-1T18:31:43Z</time></trkpt>
<trkpt lat="-0.023356" lon="230.1"><ele></ele><time>2014-5-1T18:31:46Z</time></trkpt>
<trkpt lat="-0.022764" lon="229.3"><ele></ele><time>2014-5-1T18:31:49Z</time></trkpt>
<trkpt lat="-0.022056" lon="228.4"><ele></ele><time>2014-5-1T18:31:52Z</time></trkpt>
<trkpt lat="-0.021553" lon="228.3"><ele></ele><time>2014-5-1T18:31:55Z</time></trkpt>
<trkpt lat="-0.021255" lon="227.7"><ele></ele><time>2014-5-1T18:31:58Z</time></trkpt>
<trkpt lat="-0.021037" lon="226.9"><ele></ele><time>2014-5-1T18:32:1Z</time></trkpt>
<trkpt lat="-0.020801" lon="226.2"><ele></ele><time>2014-5-1T18:32:4Z</time></trkpt>
<trkpt lat="-0.020573" lon="225.6"><ele></ele><time>2014-5-1T18:32:7Z</time></trkpt>
<trkpt lat="-0.020376" lon="226.9"><ele></ele><time>2014-5-1T18:32:10Z</time></trkpt>
<trkpt lat="-0.020184" lon="226.9"><ele></ele><time>2014-5-1T18:32:13Z</time></trkpt>
<trkpt lat="-0.019974" lon="226.5"><ele></ele><time>2014-5-1T18:32:16Z</time></trkpt>
<trkpt lat="-0.019836" lon="226.3"><ele></ele><time>2014-5-1T18:32:19Z</time></trkpt>
<trkpt lat="-0.019723" lon="225.6"><ele></ele><time>2014-5-1T18:32:22Z</time></trkpt>
<trkpt lat="-0.019630" lon="244.0"><ele></ele><time>2014-5-1T18:32:25Z</time></trkpt>
<trkpt lat="-0.019726" lon="245.7"><ele></ele><time>2014-5-1T18:32:28Z</time></trkpt>
<trkpt lat="-0.019616" lon="244.2"><ele></ele><time>2014-5-1T18:32:31Z</time></trkpt>
<trkpt lat="-0.019424" lon="242.6"><ele></ele><time>2014-5-1T18:32:34Z</time></trkpt>
<trkpt lat="-0.019236" lon="241.5"><ele></ele><time>2014-5-1T18:32:37Z</time></trkpt>
<trkpt lat="-0.018976" lon="241.6"><ele></ele><time>2014-5-1T18:32:40Z</time></trkpt>
<trkpt lat="-0.018788" lon="242.1"><ele></ele><time>2014-5-1T18:32:43Z</time></trkpt>
<trkpt lat="-0.018584" lon="242.5"><ele></ele><time>2014-5-1T18:32:46Z</time></trkpt>
<trkpt lat="-0.018384" lon="243.0"><ele></ele><time>2014-5-1T18:32:49Z</time></trkpt>
<trkpt lat="-0.018198" lon="243.3"><ele></ele><time>2014-5-1T18:32:52Z</time></trkpt>
<trkpt lat="-0.017963" lon="242.7"><ele></ele><time>2014-5-1T18:32:55Z</time></trkpt>
<trkpt lat="-0.017746" lon="244.7"><ele></ele><time>2014-5-1T18:32:58Z</time></trkpt>
<trkpt lat="-0.017568" lon="246.9"><ele></ele><time>2014-5-1T18:33:1Z</time></trkpt>
<trkpt lat="-0.017411" lon="249.2"><ele></ele><time>2014-5-1T18:33:4Z</time></trkpt>
<trkpt lat="-0.017262" lon="250.3"><ele></ele><time>2014-5-1T18:33:7Z</time></trkpt>
<trkpt lat="-0.017101" lon="253.1"><ele></ele><time>2014-5-1T18:33:10Z</time></trkpt>
<trkpt lat="-0.016919" lon="253.9"><ele></ele><time>2014-5-1T18:33:13Z</time></trkpt>
<trkpt lat="-0.016803" lon="255.8"><ele></ele><time>2014-5-1T18:33:16Z</time></trkpt>
<trkpt lat="-0.016700" lon="257.8"><ele></ele><time>2014-5-1T18:33:19Z</time></trkpt>
<trkpt lat="-0.016571" lon="260.4"><ele></ele><time>2014-5-1T18:33:22Z</time></trkpt>
<trkpt lat="-0.016435" lon="262.0"><ele></ele><time>2014-5-1T18:33:25Z</time></trkpt>
<trkpt lat="-0.016317" lon="263.1"><ele></ele><time>2014-5-1T18:33:28Z</time></trkpt>
<trkpt lat="-0.016183" lon="263.8"><ele></ele><time>2014-5-1T18:33:31Z</time></trkpt>
<trkpt lat="-0.016099" lon="264.0"><ele></ele><time>2014-5-1T18:33:34Z</time></trkpt>
<trkpt lat="-0.016034" lon="265.3"><ele></ele><time>2014-5-1T18:33:37Z</time></trkpt>
<trkpt lat="-0.015926" lon="265.6"><ele></ele><time>2014-5-1T18:33:40Z</time></trkpt>
<trkpt lat="-0.015813" lon="266.5"><ele></ele><time>2014-5-1T18:33:43Z</time></trkpt>
<trkpt lat="-0.015683" lon="267.9"><ele></ele><time>2014-5-1T18:33:46Z</time></trkpt>
<trkpt lat="-0.015531" lon="269.1"><ele></ele><time>2014-5-1T18:33:49Z</time></trkpt>
<trkpt lat="-0.015359" lon="271.0"><ele></ele><time>2014-5-1T18:33:52Z</time></trkpt>
<trkpt lat="-0.015166" lon="272.2"><ele></ele><time>2014-5-1T18:33:55Z</time></trkpt>
<trkpt lat="-0.014985" lon="275.7"><ele></ele><time>2014-5-1T18:33:58Z</time></trkpt>
<trkpt lat="-0.014838" lon="278.2"><ele></ele><time>2014-5-1T18:34:1Z</time></trkpt>
<trkpt lat="-0.014718" lon="280.4"><ele></ele><time>2014-5-1T18:34:4Z</time></trkpt>
<trkpt lat="-0.014603" lon="282.2"><ele></ele><time>2014-5-1T18:34:7Z</time></trkpt>
<trkpt lat="-0.014464" lon="284.2"><ele></ele><time>2014-5-1T18:34:10Z</time></trkpt>
<trkpt lat="-0.014314" lon="285.9"><ele></ele><time>2014-5-1T18:34:13Z</time></trkpt>
<trkpt lat="-0.014122" lon="287.5"><ele></ele><time>2014-5-1T18:34:16Z</time></trkpt>
<trkpt lat="-0.013965" lon="288.5"><ele></ele><time>2014-5-1T18:34:19Z</time></trkpt>
<trkpt lat="-0.013755" lon="289.8"><ele></ele><time>2014-5-1T18:34:22Z</time></trkpt>
<trkpt lat="-0.013583" lon="292.0"><ele></ele><time>2014-5-1T18:34:25Z</time></trkpt>
<trkpt lat="-0.013386" lon="294.5"><ele></ele><time>2014-5-1T18:34:28Z</time></trkpt>
<trkpt lat="-0.013174" lon="296.8"><ele></ele><time>2014-5-1T18:34:31Z</time></trkpt>
<trkpt lat="-0.012954" lon="297.7"><ele></ele><time>2014-5-1T18:34:34Z</time></trkpt>
<trkpt lat="-0.012718" lon="299.5"><ele></ele><time>2014-5-1T18:34:37Z</time></trkpt>
<trkpt lat="-0.012482" lon="302.0"><ele></ele><time>2014-5-1T18:34:40Z</time></trkpt>
<trkpt lat="-0.012270" lon="303.9"><ele></ele><time>2014-5-1T18:34:43Z</time></trkpt>
<trkpt lat="-0.012035" lon="305.7"><ele></ele><time>2014-5-1T18:34:46Z</time></trkpt>
<trkpt lat="-0.011802" lon="308.7"><ele></ele><time>2014-5-1T18:34:49Z</time></trkpt>
<trkpt lat="-0.011547" lon="312.6"><ele></ele><time>2014-5-1T18:34:52Z</time></trkpt>
<trkpt lat="-0.011296" lon="314.3"><ele></ele><time>2014-5-1T18:34:55Z</time></trkpt>
<trkpt lat="-0.010985" lon="317.2"><ele></ele><time>2014-5-1T18:34:58Z</time></trkpt>
<trkpt lat="-0.010580" lon="319.3"><ele></ele><time>2014-5-1T18:35:1Z</time></trkpt>
<trkpt lat="-0.010012" lon="321.2"><ele></ele><time>2014-5-1T18:35:4Z</time></trkpt>
<trkpt lat="-0.008933" lon="320.9"><ele></ele><time>2014-5-1T18:35:7Z</time></trkpt>
<trkpt lat="-0.007733" lon="320.5"><ele></ele><time>2014-5-1T18:35:10Z</time></trkpt>
<trkpt lat="-0.007057" lon="322.1"><ele></ele><time>2014-5-1T18:35:13Z</time></trkpt>
<trkpt lat="-0.006399" lon="318.9"><ele></ele><time>2014-5-1T18:35:16Z</time></trkpt>
<trkpt lat="-0.006194" lon="322.3"><ele></ele><time>2014-5-1T18:35:19Z</time></trkpt>
<trkpt lat="-0.006406" lon="322.1"><ele></ele><time>2014-5-1T18:35:22Z</time></trkpt>
<trkpt lat="-0.006516" lon="321.2"><ele></ele><time>2014-5-1T18:35:25Z</time></trkpt>
<trkpt lat="-0.006676" lon="321.0"><ele></ele><time>2014-5-1T18:35:28Z</time></trkpt>
<trkpt lat="-0.006547" lon="322.5"><ele></ele><time>2014-5-1T18:35:31Z</time></trkpt>
<trkpt lat="-0.006444" lon="329.3"><ele></ele><time>2014-5-1T18:35:34Z</time></trkpt>
<trkpt lat="-0.006493" lon="325.7"><ele></ele><time>2014-5-1T18:35:37Z</time></trkpt>
<trkpt lat="-0.006546" lon="323.0"><ele></ele><time>2014-5-1T18:35:40Z</time></trkpt>
<trkpt lat="-0.006553" lon="321.4"><ele></ele><time>2014-5-1T18:35:43Z</time></trkpt>
<trkpt lat="-0.006532" lon="323.7"><ele></ele><time>2014-5-1T18:35:46Z</time></trkpt>
<trkpt lat="-0.006470" lon="322.2"><ele></ele><time>2014-5-1T18:35:49Z</time></trkpt>
<trkpt lat="-0.006649" lon="317.9"><ele></ele><time>2014-5-1T18:35:52Z</time></trkpt>
<trkpt lat="-0.006474" lon="316.3"><ele></ele><time>2014-5-1T18:35:55Z</time></trkpt>
</trkseg></trk></gpx>